sensor_id;sensor_type;location;lat;lon;timestamp;temperature;humidity
63051;SHT30;49136;47.416;19.402;2023-07-20T00:01:28;19.81;94.95
63051;SHT30;49136;47.416;19.402;2023-07-20T00:03:54;19.94;94.91
63051;SHT30;49136;47.416;19.402;2023-07-20T00:06:23;19.90;94.81
63051;SHT30;49136;47.416;19.402;2023-07-20T00:08:50;19.85;93.70
63051;SHT30;49136;47.416;19.402;2023-07-20T00:11:16;19.86;94.28
63051;SHT30;49136;47.416;19.402;2023-07-20T00:13:42;19.86;94.87
63051;SHT30;49136;47.416;19.402;2023-07-20T00:16:08;19.82;95.28
63051;SHT30;49136;47.416;19.402;2023-07-20T00:18:33;19.76;95.22
63051;SHT30;49136;47.416;19.402;2023-07-20T00:20:58;19.75;95.29
63051;SHT30;49136;47.416;19.402;2023-07-20T00:23:25;19.74;95.15
63051;SHT30;49136;47.416;19.402;2023-07-20T00:25:51;19.68;95.32
63051;SHT30;49136;47.416;19.402;2023-07-20T00:28:16;19.72;95.37
63051;SHT30;49136;47.416;19.402;2023-07-20T00:30:42;19.72;95.31
63051;SHT30;49136;47.416;19.402;2023-07-20T00:33:11;19.74;95.18
63051;SHT30;49136;47.416;19.402;2023-07-20T00:35:40;19.72;94.96
63051;SHT30;49136;47.416;19.402;2023-07-20T00:38:05;19.66;94.44
63051;SHT30;49136;47.416;19.402;2023-07-20T00:40:38;19.66;95.04
63051;SHT30;49136;47.416;19.402;2023-07-20T00:43:03;19.64;95.28
63051;SHT30;49136;47.416;19.402;2023-07-20T00:45:29;19.58;94.65
63051;SHT30;49136;47.416;19.402;2023-07-20T00:47:55;19.53;95.23
63051;SHT30;49136;47.416;19.402;2023-07-20T00:50:21;19.50;95.75
63051;SHT30;49136;47.416;19.402;2023-07-20T00:52:46;19.50;95.22
63051;SHT30;49136;47.416;19.402;2023-07-20T00:55:12;19.44;95.07
63051;SHT30;49136;47.416;19.402;2023-07-20T00:57:37;19.37;95.13
63051;SHT30;49136;47.416;19.402;2023-07-20T01:00:03;19.34;95.40
63051;SHT30;49136;47.416;19.402;2023-07-20T01:02:29;19.28;96.64
63051;SHT30;49136;47.416;19.402;2023-07-20T01:04:54;19.23;96.89
63051;SHT30;49136;47.416;19.402;2023-07-20T01:07:31;19.15;96.38
63051;SHT30;49136;47.416;19.402;2023-07-20T01:10:21;19.10;95.83
63051;SHT30;49136;47.416;19.402;2023-07-20T01:12:52;19.05;96.71
63051;SHT30;49136;47.416;19.402;2023-07-20T01:15:17;19.02;96.12
63051;SHT30;49136;47.416;19.402;2023-07-20T01:17:43;18.96;96.06
63051;SHT30;49136;47.416;19.402;2023-07-20T01:20:12;18.91;97.81
63051;SHT30;49136;47.416;19.402;2023-07-20T01:23:22;18.84;98.03
63051;SHT30;49136;47.416;19.402;2023-07-20T01:26:04;18.85;97.57
63051;SHT30;49136;47.416;19.402;2023-07-20T01:31:52;19.00;97.72
63051;SHT30;49136;47.416;19.402;2023-07-20T01:34:19;19.09;97.41
63051;SHT30;49136;47.416;19.402;2023-07-20T01:36:45;19.13;97.18
63051;SHT30;49136;47.416;19.402;2023-07-20T01:39:11;19.17;96.36
63051;SHT30;49136;47.416;19.402;2023-07-20T01:41:37;19.13;96.56
63051;SHT30;49136;47.416;19.402;2023-07-20T01:44:03;19.19;96.24
63051;SHT30;49136;47.416;19.402;2023-07-20T01:46:29;19.13;97.05
63051;SHT30;49136;47.416;19.402;2023-07-20T01:48:55;19.12;97.03
63051;SHT30;49136;47.416;19.402;2023-07-20T01:51:20;19.15;96.92
63051;SHT30;49136;47.416;19.402;2023-07-20T01:53:46;19.12;96.49
63051;SHT30;49136;47.416;19.402;2023-07-20T01:56:11;19.13;96.55
63051;SHT30;49136;47.416;19.402;2023-07-20T01:58:38;19.13;96.58
63051;SHT30;49136;47.416;19.402;2023-07-20T02:01:03;19.16;96.62
63051;SHT30;49136;47.416;19.402;2023-07-20T02:03:29;19.22;96.37
63051;SHT30;49136;47.416;19.402;2023-07-20T02:05:54;19.20;96.11
63051;SHT30;49136;47.416;19.402;2023-07-20T02:08:19;19.22;95.77
63051;SHT30;49136;47.416;19.402;2023-07-20T02:10:47;19.26;96.23
63051;SHT30;49136;47.416;19.402;2023-07-20T02:13:13;19.30;95.86
63051;SHT30;49136;47.416;19.402;2023-07-20T02:15:38;19.28;95.64
63051;SHT30;49136;47.416;19.402;2023-07-20T02:18:04;19.34;95.96
63051;SHT30;49136;47.416;19.402;2023-07-20T02:20:29;19.35;95.78
63051;SHT30;49136;47.416;19.402;2023-07-20T02:22:55;19.34;96.40
63051;SHT30;49136;47.416;19.402;2023-07-20T02:25:21;19.28;95.34
63051;SHT30;49136;47.416;19.402;2023-07-20T02:27:47;19.27;95.83
63051;SHT30;49136;47.416;19.402;2023-07-20T02:30:12;19.24;96.06
63051;SHT30;49136;47.416;19.402;2023-07-20T02:32:38;19.15;96.86
63051;SHT30;49136;47.416;19.402;2023-07-20T02:35:04;19.07;97.21
63051;SHT30;49136;47.416;19.402;2023-07-20T02:37:30;19.00;97.14
63051;SHT30;49136;47.416;19.402;2023-07-20T02:39:56;18.95;97.54
63051;SHT30;49136;47.416;19.402;2023-07-20T02:42:21;18.94;97.38
63051;SHT30;49136;47.416;19.402;2023-07-20T02:44:48;18.91;96.96
63051;SHT30;49136;47.416;19.402;2023-07-20T02:47:13;18.88;96.95
63051;SHT30;49136;47.416;19.402;2023-07-20T02:49:39;18.82;97.59
63051;SHT30;49136;47.416;19.402;2023-07-20T02:52:04;18.74;98.10
63051;SHT30;49136;47.416;19.402;2023-07-20T02:54:30;18.69;97.21
63051;SHT30;49136;47.416;19.402;2023-07-20T02:56:56;18.68;97.05
63051;SHT30;49136;47.416;19.402;2023-07-20T02:59:21;18.71;97.23
63051;SHT30;49136;47.416;19.402;2023-07-20T03:01:47;18.64;98.23
63051;SHT30;49136;47.416;19.402;2023-07-20T03:04:12;18.67;97.35
63051;SHT30;49136;47.416;19.402;2023-07-20T03:06:38;18.65;97.56
63051;SHT30;49136;47.416;19.402;2023-07-20T03:09:03;18.67;96.92
63051;SHT30;49136;47.416;19.402;2023-07-20T03:11:29;18.63;98.33
63051;SHT30;49136;47.416;19.402;2023-07-20T03:13:55;18.65;97.70
63051;SHT30;49136;47.416;19.402;2023-07-20T03:16:24;18.68;97.59
63051;SHT30;49136;47.416;19.402;2023-07-20T03:18:50;18.65;98.00
63051;SHT30;49136;47.416;19.402;2023-07-20T03:21:16;18.61;98.66
63051;SHT30;49136;47.416;19.402;2023-07-20T03:23:42;18.64;97.75
63051;SHT30;49136;47.416;19.402;2023-07-20T03:26:07;18.68;97.82
63051;SHT30;49136;47.416;19.402;2023-07-20T03:28:37;18.64;98.54
63051;SHT30;49136;47.416;19.402;2023-07-20T03:31:03;18.65;98.26
63051;SHT30;49136;47.416;19.402;2023-07-20T03:33:29;18.69;98.79
63051;SHT30;49136;47.416;19.402;2023-07-20T03:35:55;18.69;99.02
63051;SHT30;49136;47.416;19.402;2023-07-20T03:38:21;18.79;98.08
63051;SHT30;49136;47.416;19.402;2023-07-20T03:43:16;18.95;96.99
63051;SHT30;49136;47.416;19.402;2023-07-20T03:45:42;18.98;98.10
63051;SHT30;49136;47.416;19.402;2023-07-20T03:48:07;19.02;96.56
63051;SHT30;49136;47.416;19.402;2023-07-20T03:50:33;19.10;97.89
63051;SHT30;49136;47.416;19.402;2023-07-20T03:52:58;19.15;97.94
63051;SHT30;49136;47.416;19.402;2023-07-20T03:55:24;19.24;97.68
63051;SHT30;49136;47.416;19.402;2023-07-20T03:57:49;19.34;96.38
63051;SHT30;49136;47.416;19.402;2023-07-20T04:00:16;19.48;97.44
63051;SHT30;49136;47.416;19.402;2023-07-20T04:02:42;19.55;97.66
63051;SHT30;49136;47.416;19.402;2023-07-20T04:05:08;19.65;97.05
63051;SHT30;49136;47.416;19.402;2023-07-20T04:07:33;19.78;97.61
63051;SHT30;49136;47.416;19.402;2023-07-20T04:09:59;19.87;97.22
63051;SHT30;49136;47.416;19.402;2023-07-20T04:12:24;19.96;96.67
63051;SHT30;49136;47.416;19.402;2023-07-20T04:14:49;20.10;97.03
63051;SHT30;49136;47.416;19.402;2023-07-20T04:17:15;20.09;96.43
63051;SHT30;49136;47.416;19.402;2023-07-20T04:19:40;20.17;96.94
63051;SHT30;49136;47.416;19.402;2023-07-20T04:22:07;20.24;95.52
63051;SHT30;49136;47.416;19.402;2023-07-20T04:24:33;20.34;96.37
63051;SHT30;49136;47.416;19.402;2023-07-20T04:26:58;20.48;95.04
63051;SHT30;49136;47.416;19.402;2023-07-20T04:29:24;20.61;95.40
63051;SHT30;49136;47.416;19.402;2023-07-20T04:31:49;20.75;94.58
63051;SHT30;49136;47.416;19.402;2023-07-20T04:34:15;20.82;94.29
63051;SHT30;49136;47.416;19.402;2023-07-20T04:36:40;20.93;93.53
63051;SHT30;49136;47.416;19.402;2023-07-20T04:39:05;21.04;93.93
63051;SHT30;49136;47.416;19.402;2023-07-20T04:41:33;21.17;93.02
63051;SHT30;49136;47.416;19.402;2023-07-20T04:43:58;21.28;93.45
63051;SHT30;49136;47.416;19.402;2023-07-20T04:46:24;21.45;93.56
63051;SHT30;49136;47.416;19.402;2023-07-20T04:48:49;21.58;91.78
63051;SHT30;49136;47.416;19.402;2023-07-20T04:51:14;21.75;91.88
63051;SHT30;49136;47.416;19.402;2023-07-20T04:53:42;21.90;90.91
63051;SHT30;49136;47.416;19.402;2023-07-20T04:56:08;22.08;90.15
63051;SHT30;49136;47.416;19.402;2023-07-20T04:58:33;22.32;89.28
63051;SHT30;49136;47.416;19.402;2023-07-20T05:00:59;22.48;88.63
63051;SHT30;49136;47.416;19.402;2023-07-20T05:03:24;22.70;88.27
63051;SHT30;49136;47.416;19.402;2023-07-20T05:05:49;23.01;88.14
63051;SHT30;49136;47.416;19.402;2023-07-20T05:08:15;23.26;87.16
63051;SHT30;49136;47.416;19.402;2023-07-20T05:10:41;23.57;86.32
63051;SHT30;49136;47.416;19.402;2023-07-20T05:13:07;23.88;84.51
63051;SHT30;49136;47.416;19.402;2023-07-20T05:15:33;23.93;83.22
63051;SHT30;49136;47.416;19.402;2023-07-20T05:18:00;24.06;82.20
63051;SHT30;49136;47.416;19.402;2023-07-20T05:20:26;24.55;82.91
63051;SHT30;49136;47.416;19.402;2023-07-20T05:22:52;24.80;81.31
63051;SHT30;49136;47.416;19.402;2023-07-20T05:25:18;24.91;80.80
63051;SHT30;49136;47.416;19.402;2023-07-20T05:27:44;24.98;79.70
63051;SHT30;49136;47.416;19.402;2023-07-20T05:30:11;25.08;78.45
63051;SHT30;49136;47.416;19.402;2023-07-20T05:32:36;25.16;78.19
63051;SHT30;49136;47.416;19.402;2023-07-20T05:35:02;25.34;77.27
63051;SHT30;49136;47.416;19.402;2023-07-20T05:37:27;25.43;73.83
63051;SHT30;49136;47.416;19.402;2023-07-20T05:39:53;25.08;74.46
63051;SHT30;49136;47.416;19.402;2023-07-20T05:42:18;25.30;74.03
63051;SHT30;49136;47.416;19.402;2023-07-20T05:44:44;25.64;73.76
63051;SHT30;49136;47.416;19.402;2023-07-20T05:47:09;25.46;72.92
63051;SHT30;49136;47.416;19.402;2023-07-20T05:49:35;25.53;71.00
63051;SHT30;49136;47.416;19.402;2023-07-20T05:52:01;25.82;69.93
63051;SHT30;49136;47.416;19.402;2023-07-20T05:54:27;25.99;68.34
63051;SHT30;49136;47.416;19.402;2023-07-20T05:56:52;26.05;67.77
63051;SHT30;49136;47.416;19.402;2023-07-20T05:59:18;26.20;68.43
63051;SHT30;49136;47.416;19.402;2023-07-20T06:01:45;26.37;66.45
63051;SHT30;49136;47.416;19.402;2023-07-20T06:04:12;26.41;65.56
63051;SHT30;49136;47.416;19.402;2023-07-20T06:06:37;26.61;66.51
63051;SHT30;49136;47.416;19.402;2023-07-20T06:09:03;26.85;65.84
63051;SHT30;49136;47.416;19.402;2023-07-20T06:11:30;26.44;65.28
63051;SHT30;49136;47.416;19.402;2023-07-20T06:13:56;26.69;64.86
63051;SHT30;49136;47.416;19.402;2023-07-20T06:16:21;26.72;65.20
63051;SHT30;49136;47.416;19.402;2023-07-20T06:18:47;26.89;65.45
63051;SHT30;49136;47.416;19.402;2023-07-20T06:21:12;27.26;66.54
63051;SHT30;49136;47.416;19.402;2023-07-20T06:23:38;27.36;64.49
63051;SHT30;49136;47.416;19.402;2023-07-20T06:26:05;26.98;65.09
63051;SHT30;49136;47.416;19.402;2023-07-20T06:28:31;27.48;64.60
63051;SHT30;49136;47.416;19.402;2023-07-20T06:31:03;27.52;62.00
63051;SHT30;49136;47.416;19.402;2023-07-20T06:33:28;27.69;62.49
63051;SHT30;49136;47.416;19.402;2023-07-20T06:35:54;27.51;62.88
63051;SHT30;49136;47.416;19.402;2023-07-20T06:38:20;27.22;63.11
63051;SHT30;49136;47.416;19.402;2023-07-20T06:40:46;27.41;62.53
63051;SHT30;49136;47.416;19.402;2023-07-20T06:43:12;27.54;62.20
63051;SHT30;49136;47.416;19.402;2023-07-20T06:45:37;27.34;63.25
63051;SHT30;49136;47.416;19.402;2023-07-20T06:48:03;27.66;61.67
63051;SHT30;49136;47.416;19.402;2023-07-20T06:50:29;27.81;61.11
63051;SHT30;49136;47.416;19.402;2023-07-20T06:52:54;27.84;60.37
63051;SHT30;49136;47.416;19.402;2023-07-20T06:55:20;28.06;60.38
63051;SHT30;49136;47.416;19.402;2023-07-20T06:57:46;28.04;59.08
63051;SHT30;49136;47.416;19.402;2023-07-20T07:00:12;28.03;59.82
63051;SHT30;49136;47.416;19.402;2023-07-20T07:02:38;28.14;59.97
63051;SHT30;49136;47.416;19.402;2023-07-20T07:05:04;28.45;60.64
63051;SHT30;49136;47.416;19.402;2023-07-20T07:07:31;28.45;60.24
63051;SHT30;49136;47.416;19.402;2023-07-20T07:09:59;28.61;59.35
63051;SHT30;49136;47.416;19.402;2023-07-20T07:12:25;28.79;59.86
63051;SHT30;49136;47.416;19.402;2023-07-20T07:14:51;28.69;58.96
63051;SHT30;49136;47.416;19.402;2023-07-20T07:17:16;28.33;59.55
63051;SHT30;49136;47.416;19.402;2023-07-20T07:19:42;28.27;58.26
63051;SHT30;49136;47.416;19.402;2023-07-20T07:22:09;28.41;59.02
63051;SHT30;49136;47.416;19.402;2023-07-20T07:24:35;28.54;58.50
63051;SHT30;49136;47.416;19.402;2023-07-20T07:27:01;28.21;58.21
63051;SHT30;49136;47.416;19.402;2023-07-20T07:29:26;28.20;60.53
63051;SHT30;49136;47.416;19.402;2023-07-20T07:31:52;28.07;59.41
63051;SHT30;49136;47.416;19.402;2023-07-20T07:34:17;28.10;59.56
63051;SHT30;49136;47.416;19.402;2023-07-20T07:36:44;28.34;58.28
63051;SHT30;49136;47.416;19.402;2023-07-20T07:39:10;28.40;58.97
63051;SHT30;49136;47.416;19.402;2023-07-20T07:41:36;28.14;58.38
63051;SHT30;49136;47.416;19.402;2023-07-20T07:44:02;28.43;58.12
63051;SHT30;49136;47.416;19.402;2023-07-20T07:46:27;28.72;57.23
63051;SHT30;49136;47.416;19.402;2023-07-20T07:48:52;28.76;57.58
63051;SHT30;49136;47.416;19.402;2023-07-20T07:51:18;28.86;57.09
63051;SHT30;49136;47.416;19.402;2023-07-20T07:53:45;28.82;54.39
63051;SHT30;49136;47.416;19.402;2023-07-20T07:56:11;28.71;55.16
63051;SHT30;49136;47.416;19.402;2023-07-20T07:58:36;29.04;55.78
63051;SHT30;49136;47.416;19.402;2023-07-20T08:01:02;28.61;56.14
63051;SHT30;49136;47.416;19.402;2023-07-20T08:03:28;28.97;54.74
63051;SHT30;49136;47.416;19.402;2023-07-20T08:05:54;28.62;53.42
63051;SHT30;49136;47.416;19.402;2023-07-20T08:08:25;28.58;53.60
63051;SHT30;49136;47.416;19.402;2023-07-20T08:10:53;28.66;54.46
63051;SHT30;49136;47.416;19.402;2023-07-20T08:13:19;28.80;53.60
63051;SHT30;49136;47.416;19.402;2023-07-20T08:15:49;29.06;53.14
63051;SHT30;49136;47.416;19.402;2023-07-20T08:18:14;28.72;52.94
63051;SHT30;49136;47.416;19.402;2023-07-20T08:20:43;28.92;54.31
63051;SHT30;49136;47.416;19.402;2023-07-20T08:23:09;29.02;53.36
63051;SHT30;49136;47.416;19.402;2023-07-20T08:25:36;29.37;54.60
63051;SHT30;49136;47.416;19.402;2023-07-20T08:28:04;29.35;53.23
63051;SHT30;49136;47.416;19.402;2023-07-20T08:30:46;29.28;52.93
63051;SHT30;49136;47.416;19.402;2023-07-20T08:33:13;29.58;54.42
63051;SHT30;49136;47.416;19.402;2023-07-20T08:35:39;29.73;52.33
63051;SHT30;49136;47.416;19.402;2023-07-20T08:38:04;29.87;52.04
63051;SHT30;49136;47.416;19.402;2023-07-20T08:40:38;29.27;51.20
63051;SHT30;49136;47.416;19.402;2023-07-20T08:43:04;29.07;52.11
63051;SHT30;49136;47.416;19.402;2023-07-20T08:45:33;28.69;52.37
63051;SHT30;49136;47.416;19.402;2023-07-20T08:48:00;28.18;53.45
63051;SHT30;49136;47.416;19.402;2023-07-20T08:50:26;28.28;53.57
63051;SHT30;49136;47.416;19.402;2023-07-20T08:52:55;27.99;54.19
63051;SHT30;49136;47.416;19.402;2023-07-20T08:55:23;28.36;53.30
63051;SHT30;49136;47.416;19.402;2023-07-20T08:57:50;28.72;51.91
63051;SHT30;49136;47.416;19.402;2023-07-20T09:00:17;28.99;53.54
63051;SHT30;49136;47.416;19.402;2023-07-20T09:02:45;28.72;54.20
63051;SHT30;49136;47.416;19.402;2023-07-20T09:05:10;29.10;54.15
63051;SHT30;49136;47.416;19.402;2023-07-20T09:07:36;29.44;52.32
63051;SHT30;49136;47.416;19.402;2023-07-20T09:10:02;29.56;53.61
63051;SHT30;49136;47.416;19.402;2023-07-20T09:12:34;29.83;52.43
63051;SHT30;49136;47.416;19.402;2023-07-20T09:15:00;30.13;52.94
63051;SHT30;49136;47.416;19.402;2023-07-20T09:17:26;30.04;50.63
63051;SHT30;49136;47.416;19.402;2023-07-20T09:19:52;30.15;50.73
63051;SHT30;49136;47.416;19.402;2023-07-20T09:22:17;30.28;50.47
63051;SHT30;49136;47.416;19.402;2023-07-20T09:24:44;30.28;51.82
63051;SHT30;49136;47.416;19.402;2023-07-20T09:27:09;30.18;52.07
63051;SHT30;49136;47.416;19.402;2023-07-20T09:29:50;29.66;51.39
63051;SHT30;49136;47.416;19.402;2023-07-20T09:32:20;30.04;52.14
63051;SHT30;49136;47.416;19.402;2023-07-20T09:34:46;30.01;51.51
63051;SHT30;49136;47.416;19.402;2023-07-20T09:37:11;30.11;51.43
63051;SHT30;49136;47.416;19.402;2023-07-20T09:39:44;30.24;53.91
63051;SHT30;49136;47.416;19.402;2023-07-20T09:42:11;30.48;49.62
63051;SHT30;49136;47.416;19.402;2023-07-20T09:44:38;30.39;50.01
63051;SHT30;49136;47.416;19.402;2023-07-20T09:47:05;30.31;49.20
63051;SHT30;49136;47.416;19.402;2023-07-20T09:49:30;30.48;49.40
63051;SHT30;49136;47.416;19.402;2023-07-20T09:51:58;30.74;48.39
63051;SHT30;49136;47.416;19.402;2023-07-20T09:54:26;30.70;49.57
63051;SHT30;49136;47.416;19.402;2023-07-20T09:56:52;30.90;50.04
63051;SHT30;49136;47.416;19.402;2023-07-20T09:59:18;31.17;49.61
63051;SHT30;49136;47.416;19.402;2023-07-20T10:01:45;31.12;48.45
63051;SHT30;49136;47.416;19.402;2023-07-20T10:04:11;30.91;48.27
63051;SHT30;49136;47.416;19.402;2023-07-20T10:06:42;31.00;49.08
63051;SHT30;49136;47.416;19.402;2023-07-20T10:09:10;31.11;49.17
63051;SHT30;49136;47.416;19.402;2023-07-20T10:11:36;31.29;47.50
63051;SHT30;49136;47.416;19.402;2023-07-20T10:14:06;31.22;47.22
63051;SHT30;49136;47.416;19.402;2023-07-20T10:16:39;31.02;49.00
63051;SHT30;49136;47.416;19.402;2023-07-20T10:19:22;30.55;48.90
63051;SHT30;49136;47.416;19.402;2023-07-20T10:21:56;30.25;49.41
63051;SHT30;49136;47.416;19.402;2023-07-20T10:24:23;29.70;49.16
63051;SHT30;49136;47.416;19.402;2023-07-20T10:26:50;29.62;51.49
63051;SHT30;49136;47.416;19.402;2023-07-20T10:29:16;30.08;50.22
63051;SHT30;49136;47.416;19.402;2023-07-20T10:31:42;30.08;49.75
63051;SHT30;49136;47.416;19.402;2023-07-20T10:34:08;29.76;47.70
63051;SHT30;49136;47.416;19.402;2023-07-20T10:36:43;30.72;48.39
63051;SHT30;49136;47.416;19.402;2023-07-20T10:39:25;30.74;47.99
63051;SHT30;49136;47.416;19.402;2023-07-20T10:42:00;30.92;47.79
63051;SHT30;49136;47.416;19.402;2023-07-20T10:44:26;31.47;47.59
63051;SHT30;49136;47.416;19.402;2023-07-20T10:46:59;31.59;48.28
63051;SHT30;49136;47.416;19.402;2023-07-20T10:49:25;31.17;47.67
63051;SHT30;49136;47.416;19.402;2023-07-20T10:51:59;31.00;47.90
63051;SHT30;49136;47.416;19.402;2023-07-20T10:56:50;31.08;48.83
63051;SHT30;49136;47.416;19.402;2023-07-20T11:01:48;31.43;49.54
63051;SHT30;49136;47.416;19.402;2023-07-20T11:04:16;31.54;48.12
63051;SHT30;49136;47.416;19.402;2023-07-20T11:06:55;31.54;46.62
63051;SHT30;49136;47.416;19.402;2023-07-20T11:09:22;31.50;47.83
63051;SHT30;49136;47.416;19.402;2023-07-20T11:11:50;31.15;47.99
63051;SHT30;49136;47.416;19.402;2023-07-20T11:14:23;30.70;48.23
63051;SHT30;49136;47.416;19.402;2023-07-20T11:16:50;31.33;50.91
63051;SHT30;49136;47.416;19.402;2023-07-20T11:19:24;31.45;49.03
63051;SHT30;49136;47.416;19.402;2023-07-20T11:21:55;31.91;48.03
63051;SHT30;49136;47.416;19.402;2023-07-20T11:24:20;31.88;48.53
63051;SHT30;49136;47.416;19.402;2023-07-20T11:26:50;32.24;46.18
63051;SHT30;49136;47.416;19.402;2023-07-20T11:29:17;32.11;45.52
63051;SHT30;49136;47.416;19.402;2023-07-20T11:31:45;31.74;46.72
63051;SHT30;49136;47.416;19.402;2023-07-20T11:34:13;31.45;46.37
63051;SHT30;49136;47.416;19.402;2023-07-20T11:36:45;31.08;46.02
63051;SHT30;49136;47.416;19.402;2023-07-20T11:39:13;31.01;46.51
63051;SHT30;49136;47.416;19.402;2023-07-20T11:41:44;30.86;45.96
63051;SHT30;49136;47.416;19.402;2023-07-20T11:44:10;30.86;46.04
63051;SHT30;49136;47.416;19.402;2023-07-20T11:46:42;30.84;47.45
63051;SHT30;49136;47.416;19.402;2023-07-20T11:49:08;30.69;46.81
63051;SHT30;49136;47.416;19.402;2023-07-20T11:51:34;31.01;45.61
63051;SHT30;49136;47.416;19.402;2023-07-20T11:54:01;31.17;45.58
63051;SHT30;49136;47.416;19.402;2023-07-20T11:56:27;30.90;46.53
63051;SHT30;49136;47.416;19.402;2023-07-20T11:59:00;30.82;45.81
63051;SHT30;49136;47.416;19.402;2023-07-20T12:01:27;31.36;46.34
63051;SHT30;49136;47.416;19.402;2023-07-20T12:04:03;30.92;46.11
63051;SHT30;49136;47.416;19.402;2023-07-20T12:06:29;30.83;46.01
63051;SHT30;49136;47.416;19.402;2023-07-20T12:08:57;30.79;45.74
63051;SHT30;49136;47.416;19.402;2023-07-20T12:11:50;30.66;47.43
63051;SHT30;49136;47.416;19.402;2023-07-20T12:14:16;31.12;47.24
63051;SHT30;49136;47.416;19.402;2023-07-20T12:16:42;31.25;46.28
63051;SHT30;49136;47.416;19.402;2023-07-20T12:19:09;31.21;47.34
63051;SHT30;49136;47.416;19.402;2023-07-20T12:21:37;31.24;47.07
63051;SHT30;49136;47.416;19.402;2023-07-20T12:24:04;31.21;47.16
63051;SHT30;49136;47.416;19.402;2023-07-20T12:26:31;30.82;45.69
63051;SHT30;49136;47.416;19.402;2023-07-20T12:28:57;31.25;48.06
63051;SHT30;49136;47.416;19.402;2023-07-20T12:31:23;31.67;46.31
63051;SHT30;49136;47.416;19.402;2023-07-20T12:33:53;31.81;45.61
63051;SHT30;49136;47.416;19.402;2023-07-20T12:36:21;32.37;44.35
63051;SHT30;49136;47.416;19.402;2023-07-20T12:38:49;32.60;44.05
63051;SHT30;49136;47.416;19.402;2023-07-20T12:41:15;32.77;44.16
63051;SHT30;49136;47.416;19.402;2023-07-20T12:43:46;32.95;44.19
63051;SHT30;49136;47.416;19.402;2023-07-20T12:46:12;33.05;44.22
63051;SHT30;49136;47.416;19.402;2023-07-20T12:48:39;31.88;43.00
63051;SHT30;49136;47.416;19.402;2023-07-20T12:51:07;32.31;44.87
63051;SHT30;49136;47.416;19.402;2023-07-20T12:53:33;32.43;44.96
63051;SHT30;49136;47.416;19.402;2023-07-20T12:56:01;32.87;45.21
63051;SHT30;49136;47.416;19.402;2023-07-20T12:58:27;33.27;43.63
63051;SHT30;49136;47.416;19.402;2023-07-20T13:00:53;32.42;43.00
63051;SHT30;49136;47.416;19.402;2023-07-20T13:03:19;31.97;42.74
63051;SHT30;49136;47.416;19.402;2023-07-20T13:05:45;32.09;44.61
63051;SHT30;49136;47.416;19.402;2023-07-20T13:08:10;32.21;44.57
63051;SHT30;49136;47.416;19.402;2023-07-20T13:10:37;31.74;41.92
63051;SHT30;49136;47.416;19.402;2023-07-20T13:13:03;30.65;42.98
63051;SHT30;49136;47.416;19.402;2023-07-20T13:15:31;30.82;43.55
63051;SHT30;49136;47.416;19.402;2023-07-20T13:17:57;30.90;43.61
63051;SHT30;49136;47.416;19.402;2023-07-20T13:20:23;30.88;41.54
63051;SHT30;49136;47.416;19.402;2023-07-20T13:22:49;31.49;44.06
63051;SHT30;49136;47.416;19.402;2023-07-20T13:25:16;31.81;44.01
63051;SHT30;49136;47.416;19.402;2023-07-20T13:27:41;31.95;43.99
63051;SHT30;49136;47.416;19.402;2023-07-20T13:30:07;31.97;43.73
63051;SHT30;49136;47.416;19.402;2023-07-20T13:32:35;31.62;42.43
63051;SHT30;49136;47.416;19.402;2023-07-20T13:35:01;31.39;43.69
63051;SHT30;49136;47.416;19.402;2023-07-20T13:37:26;31.54;42.78
63051;SHT30;49136;47.416;19.402;2023-07-20T13:39:52;31.63;44.31
63051;SHT30;49136;47.416;19.402;2023-07-20T13:42:17;31.38;43.50
63051;SHT30;49136;47.416;19.402;2023-07-20T13:44:43;31.22;43.73
63051;SHT30;49136;47.416;19.402;2023-07-20T13:47:08;31.08;44.07
63051;SHT30;49136;47.416;19.402;2023-07-20T13:49:34;31.22;44.65
63051;SHT30;49136;47.416;19.402;2023-07-20T13:51:59;31.10;43.58
63051;SHT30;49136;47.416;19.402;2023-07-20T13:54:25;31.35;43.27
63051;SHT30;49136;47.416;19.402;2023-07-20T13:56:51;31.26;43.07
63051;SHT30;49136;47.416;19.402;2023-07-20T13:59:17;31.11;43.47
63051;SHT30;49136;47.416;19.402;2023-07-20T14:01:42;31.18;44.41
63051;SHT30;49136;47.416;19.402;2023-07-20T14:04:08;30.86;44.07
63051;SHT30;49136;47.416;19.402;2023-07-20T14:06:34;31.15;44.38
63051;SHT30;49136;47.416;19.402;2023-07-20T14:09:00;31.22;44.72
63051;SHT30;49136;47.416;19.402;2023-07-20T14:11:26;30.95;43.88
63051;SHT30;49136;47.416;19.402;2023-07-20T14:13:52;31.26;44.82
63051;SHT30;49136;47.416;19.402;2023-07-20T14:16:23;31.18;45.40
63051;SHT30;49136;47.416;19.402;2023-07-20T14:18:49;31.21;43.26
63051;SHT30;49136;47.416;19.402;2023-07-20T14:21:15;31.46;44.50
63051;SHT30;49136;47.416;19.402;2023-07-20T14:23:41;31.26;43.68
63051;SHT30;49136;47.416;19.402;2023-07-20T14:26:06;30.98;43.64
63051;SHT30;49136;47.416;19.402;2023-07-20T14:28:37;31.73;43.09
63051;SHT30;49136;47.416;19.402;2023-07-20T14:31:03;31.92;43.84
63051;SHT30;49136;47.416;19.402;2023-07-20T14:33:28;32.04;43.38
63051;SHT30;49136;47.416;19.402;2023-07-20T14:35:54;31.66;43.27
63051;SHT30;49136;47.416;19.402;2023-07-20T14:38:19;31.06;43.22
63051;SHT30;49136;47.416;19.402;2023-07-20T14:40:44;31.24;44.75
63051;SHT30;49136;47.416;19.402;2023-07-20T14:43:11;31.08;45.16
63051;SHT30;49136;47.416;19.402;2023-07-20T14:45:36;31.06;44.09
63051;SHT30;49136;47.416;19.402;2023-07-20T14:48:05;30.79;43.31
63051;SHT30;49136;47.416;19.402;2023-07-20T14:50:31;30.66;44.26
63051;SHT30;49136;47.416;19.402;2023-07-20T14:52:56;30.62;44.47
63051;SHT30;49136;47.416;19.402;2023-07-20T14:55:22;30.80;44.28
63051;SHT30;49136;47.416;19.402;2023-07-20T14:57:48;30.80;45.52
63051;SHT30;49136;47.416;19.402;2023-07-20T15:00:14;30.95;44.17
63051;SHT30;49136;47.416;19.402;2023-07-20T15:02:40;30.94;45.37
63051;SHT30;49136;47.416;19.402;2023-07-20T15:05:09;31.14;43.03
63051;SHT30;49136;47.416;19.402;2023-07-20T15:07:35;30.90;44.34
63051;SHT30;49136;47.416;19.402;2023-07-20T15:10:02;30.52;44.27
63051;SHT30;49136;47.416;19.402;2023-07-20T15:12:27;30.66;45.86
63051;SHT30;49136;47.416;19.402;2023-07-20T15:15:10;30.74;47.57
63051;SHT30;49136;47.416;19.402;2023-07-20T15:17:37;31.01;44.30
63051;SHT30;49136;47.416;19.402;2023-07-20T15:20:03;31.22;44.41
63051;SHT30;49136;47.416;19.402;2023-07-20T15:22:33;31.24;45.39
63051;SHT30;49136;47.416;19.402;2023-07-20T15:24:58;31.06;44.32